Time;durP1;ratioP1;P1;durP2;ratioP2;P2;SDS_P1;SDS_P2;PMS_P1;PMS_P2;Temp;Humidity;BMP_temperature;BMP_pressure;BME280_temperature;BME280_humidity;BME280_pressure;Samples;Min_cycle;Max_cycle;Signal;HPM_P1;HPM_P2
2023/04/24 03:02:05;;;;;;;0.20;0.00;;;11.10;96.00;;;;;;5511606;23;95876;-70
2023/04/24 03:04:31;;;;;;;0.20;0.00;;;11.10;96.30;;;;;;4875438;28;94614;-70
2023/04/24 03:06:57;;;;;;;0.30;0.00;;;11.10;96.40;;;;;;4893943;28;92455;-69
2023/04/24 03:09:23;;;;;;;1.42;0.00;;;11.00;96.60;;;;;;4897994;28;92672;-70
2023/04/24 03:11:49;;;;;;;0.20;0.00;;;11.00;96.40;;;;;;4899006;28;93172;-70
2023/04/24 03:14:15;;;;;;;0.75;0.00;;;11.00;96.30;;;;;;4897657;28;93208;-69
2023/04/24 03:16:41;;;;;;;0.30;0.00;;;11.00;95.40;;;;;;4898460;28;92682;-71
2023/04/24 03:19:07;;;;;;;0.17;0.00;;;11.00;95.30;;;;;;4898448;28;91914;-70
2023/04/24 03:21:33;;;;;;;0.20;0.00;;;11.00;95.00;;;;;;4895259;28;92596;-70
2023/04/24 03:23:59;;;;;;;0.80;0.00;;;11.00;94.40;;;;;;4894801;28;92838;-70
2023/04/24 03:26:24;;;;;;;0.52;0.00;;;11.00;94.50;;;;;;4895680;28;93520;-70
2023/04/24 03:28:50;;;;;;;0.63;0.00;;;11.00;94.00;;;;;;4898900;28;92049;-71
2023/04/24 03:31:16;;;;;;;0.70;0.00;;;11.00;93.90;;;;;;4897589;28;92501;-71
2023/04/24 03:33:42;;;;;;;1.17;0.00;;;11.00;93.50;;;;;;4895317;28;92355;-71
2023/04/24 03:36:08;;;;;;;0.15;0.00;;;11.10;93.30;;;;;;4896025;28;92190;-70
2023/04/24 03:38:33;;;;;;;0.28;0.00;;;11.10;93.00;;;;;;4900262;28;92736;-71
2023/04/24 03:40:59;;;;;;;0.40;0.00;;;11.00;92.60;;;;;;4891133;28;92862;-71
2023/04/24 03:43:27;;;;;;;0.25;0.00;;;11.00;92.40;;;;;;4890790;28;92284;-71
2023/04/24 03:45:52;;;;;;;0.20;0.00;;;11.00;92.60;;;;;;4889228;28;92554;-69
2023/04/24 03:48:18;;;;;;;0.38;0.00;;;11.10;92.30;;;;;;4888631;28;92730;-70
2023/04/24 03:50:44;;;;;;;1.40;0.00;;;11.00;91.60;;;;;;4891524;28;94179;-69
2023/04/24 03:53:09;;;;;;;1.27;0.00;;;11.10;91.60;;;;;;4897413;28;93654;-69
2023/04/24 03:55:35;;;;;;;0.20;0.00;;;11.10;91.60;;;;;;4897219;28;92270;-70
2023/04/24 03:58:01;;;;;;;0.10;0.00;;;11.10;91.60;;;;;;4898297;28;92412;-70
2023/04/24 04:00:27;;;;;;;0.75;0.00;;;11.20;91.00;;;;;;4894282;28;93124;-70
2023/04/24 04:02:53;;;;;;;0.13;0.00;;;11.10;91.30;;;;;;4881670;28;92923;-70
2023/04/24 04:05:19;;;;;;;0.20;0.00;;;11.10;90.90;;;;;;4860726;28;92577;-70
2023/04/24 04:07:44;;;;;;;0.55;0.00;;;11.10;90.40;;;;;;4879787;28;91665;-70
2023/04/24 04:10:10;;;;;;;0.20;0.00;;;11.00;90.90;;;;;;4880262;28;93687;-70
2023/04/24 04:12:36;;;;;;;0.30;0.00;;;11.00;90.70;;;;;;4878176;28;92600;-70
2023/04/24 04:15:02;;;;;;;0.70;0.00;;;11.00;91.10;;;;;;4873018;28;93577;-71
2023/04/24 04:17:28;;;;;;;0.30;0.00;;;11.00;91.30;;;;;;4892108;28;92409;-70
2023/04/24 04:19:53;;;;;;;1.65;0.00;;;11.00;90.90;;;;;;4881798;28;93667;-70
2023/04/24 04:22:19;;;;;;;0.08;0.00;;;11.00;90.90;;;;;;4881088;28;93005;-70
2023/04/24 04:24:46;;;;;;;0.50;0.00;;;11.10;91.00;;;;;;4868657;28;92206;-70
2023/04/24 04:27:12;;;;;;;0.50;0.00;;;11.00;90.70;;;;;;4892193;28;92660;-72
2023/04/24 04:29:38;;;;;;;0.20;0.00;;;11.00;90.40;;;;;;4881681;28;92664;-69
2023/04/24 04:32:04;;;;;;;0.85;0.10;;;11.10;90.20;;;;;;4874682;28;93912;-70
2023/04/24 04:34:31;;;;;;;0.17;0.00;;;11.10;90.00;;;;;;4880068;28;92608;-70
2023/04/24 04:36:59;;;;;;;0.60;0.00;;;11.10;88.90;;;;;;4880983;28;92115;-70
2023/04/24 04:39:25;;;;;;;0.75;0.00;;;11.10;88.80;;;;;;4880256;28;95092;-71
2023/04/24 04:41:51;;;;;;;0.15;0.00;;;11.10;89.20;;;;;;4874866;28;92793;-70
2023/04/24 04:44:16;;;;;;;0.10;0.00;;;11.20;88.10;;;;;;4877303;28;93758;-69
2023/04/24 04:46:42;;;;;;;0.10;0.00;;;11.20;87.90;;;;;;4873332;28;92266;-70
2023/04/24 04:49:08;;;;;;;0.10;0.00;;;11.20;87.80;;;;;;4876210;28;95032;-71
2023/04/24 04:51:34;;;;;;;0.47;0.00;;;11.20;86.40;;;;;;4876532;28;94726;-71
2023/04/24 04:54:00;;;;;;;0.20;0.00;;;11.20;86.80;;;;;;4881662;28;92534;-70
2023/04/24 04:56:26;;;;;;;0.15;0.00;;;11.20;87.30;;;;;;4882018;28;91944;-70
2023/04/24 04:58:51;;;;;;;0.05;0.00;;;11.30;86.80;;;;;;4880712;28;93127;-70
2023/04/24 05:01:17;;;;;;;2.60;0.00;;;11.30;87.10;;;;;;4878408;28;93206;-70
2023/04/24 05:03:43;;;;;;;0.00;0.00;;;11.30;87.10;;;;;;4880873;28;93315;-70
2023/04/24 05:06:08;;;;;;;0.47;0.00;;;11.30;87.30;;;;;;4878477;28;92084;-70
2023/04/24 05:08:34;;;;;;;0.30;0.00;;;11.40;87.80;;;;;;4880362;28;93042;-70
2023/04/24 05:11:00;;;;;;;0.10;0.00;;;11.40;87.60;;;;;;4879754;28;93440;-70
2023/04/24 05:13:26;;;;;;;0.03;0.00;;;11.30;87.50;;;;;;4881161;28;92791;-70
2023/04/24 05:15:52;;;;;;;0.73;0.00;;;11.30;87.50;;;;;;4878168;28;92377;-70
2023/04/24 05:18:18;;;;;;;0.13;0.00;;;11.20;88.20;;;;;;4876503;28;93192;-70
2023/04/24 05:20:43;;;;;;;1.92;0.00;;;11.20;88.30;;;;;;4882026;28;93456;-70
2023/04/24 05:23:10;;;;;;;0.32;0.00;;;11.20;88.20;;;;;;4876679;28;92174;-70
2023/04/24 05:25:36;;;;;;;0.13;0.10;;;11.20;88.10;;;;;;4879359;28;93506;-70
2023/04/24 05:28:02;;;;;;;0.00;0.00;;;11.20;88.40;;;;;;4876918;28;93659;-70
2023/04/24 05:30:28;;;;;;;0.28;0.00;;;11.20;87.40;;;;;;4878760;28;92503;-70
2023/04/24 05:32:54;;;;;;;0.52;0.00;;;11.30;88.10;;;;;;4880735;28;92460;-71
2023/04/24 05:35:20;;;;;;;0.68;0.00;;;11.30;87.40;;;;;;4878049;28;92447;-70
2023/04/24 05:37:46;;;;;;;0.47;0.00;;;11.40;86.80;;;;;;4882983;28;93204;-70
2023/04/24 05:40:12;;;;;;;0.70;0.00;;;11.30;86.80;;;;;;4882385;28;94756;-71
2023/04/24 05:42:37;;;;;;;0.20;0.00;;;11.30;87.20;;;;;;4867060;28;94338;-72
2023/04/24 05:45:04;;;;;;;0.10;0.00;;;11.20;88.20;;;;;;4871870;28;91700;-71
2023/04/24 05:47:30;;;;;;;0.73;0.00;;;11.20;88.40;;;;;;4886262;28;94135;-71
2023/04/24 05:49:55;;;;;;;1.08;0.00;;;11.20;88.40;;;;;;4879669;28;92606;-71
2023/04/24 05:52:21;;;;;;;0.63;0.00;;;11.20;87.40;;;;;;4876948;28;93843;-72
2023/04/24 05:54:47;;;;;;;0.40;0.00;;;11.30;87.40;;;;;;4879558;28;92502;-72
2023/04/24 05:57:12;;;;;;;0.30;0.00;;;11.30;88.30;;;;;;4872300;28;94204;-71
2023/04/24 05:59:38;;;;;;;1.23;0.10;;;11.40;88.70;;;;;;4872364;28;92651;-72
2023/04/24 06:02:04;;;;;;;1.13;0.20;;;11.50;89.10;;;;;;4879801;28;92340;-71
2023/04/24 06:04:30;;;;;;;0.52;0.10;;;11.50;88.00;;;;;;4881612;28;92500;-72
2023/04/24 06:06:55;;;;;;;1.45;0.00;;;11.70;88.50;;;;;;4890341;28;92601;-72
2023/04/24 06:09:25;;;;;;;0.30;0.00;;;11.70;87.60;;;;;;4883801;28;92859;-72
2023/04/24 06:11:54;;;;;;;0.30;0.00;;;11.80;86.80;;;;;;4883486;28;92630;-72
2023/04/24 06:14:20;;;;;;;0.20;0.00;;;11.90;87.70;;;;;;4879488;28;92483;-72
2023/04/24 06:16:45;;;;;;;0.45;0.00;;;12.00;87.30;;;;;;4891265;28;94085;-71
2023/04/24 06:19:11;;;;;;;0.40;0.00;;;12.00;87.20;;;;;;4878806;28;93329;-72
2023/04/24 06:21:37;;;;;;;1.60;0.30;;;12.10;87.40;;;;;;4882589;28;93664;-72
2023/04/24 06:24:04;;;;;;;1.02;0.10;;;12.20;86.30;;;;;;4885192;28;92784;-72
2023/04/24 06:26:30;;;;;;;0.30;0.00;;;12.20;85.40;;;;;;4879158;28;93070;-72
2023/04/24 06:28:56;;;;;;;0.52;0.00;;;12.20;85.50;;;;;;4862952;28;93701;-71
2023/04/24 06:31:22;;;;;;;0.30;0.00;;;12.10;83.40;;;;;;4884694;28;92581;-72
2023/04/24 06:33:48;;;;;;;0.52;0.08;;;12.10;84.50;;;;;;4880237;28;91917;-71
2023/04/24 06:36:14;;;;;;;0.55;0.00;;;12.10;84.10;;;;;;4881614;28;93566;-71
2023/04/24 06:38:40;;;;;;;0.30;0.00;;;12.10;83.20;;;;;;4878524;28;92616;-71
2023/04/24 06:41:06;;;;;;;1.60;0.08;;;12.10;83.10;;;;;;4873642;28;93960;-72
2023/04/24 06:43:31;;;;;;;1.30;0.10;;;12.10;83.60;;;;;;4872059;28;93180;-71
2023/04/24 06:45:58;;;;;;;2.08;0.10;;;12.10;82.70;;;;;;4872598;28;93217;-71
2023/04/24 06:48:25;;;;;;;1.33;0.10;;;12.00;81.80;;;;;;4859849;28;95513;-71
2023/04/24 06:50:51;;;;;;;1.08;0.10;;;12.10;82.30;;;;;;4884063;28;93760;-72
2023/04/24 06:53:16;;;;;;;0.93;0.10;;;12.10;82.70;;;;;;4878391;28;92348;-71
2023/04/24 06:55:46;;;;;;;1.27;0.15;;;12.00;82.40;;;;;;4891761;28;93185;-71
2023/04/24 06:58:12;;;;;;;0.77;0.13;;;12.00;82.60;;;;;;4879291;28;92891;-71
2023/04/24 07:00:38;;;;;;;1.30;0.10;;;12.10;82.60;;;;;;4892011;28;93298;-71
2023/04/24 07:03:07;;;;;;;2.38;0.28;;;12.10;82.60;;;;;;4883036;28;92755;-71
2023/04/24 07:05:35;;;;;;;0.88;0.10;;;12.20;81.90;;;;;;4874466;28;94089;-71
2023/04/24 07:08:01;;;;;;;0.40;0.10;;;12.20;80.80;;;;;;4854445;28;93899;-71
2023/04/24 07:10:28;;;;;;;1.10;0.10;;;12.20;81.40;;;;;;4854385;28;92934;-71
2023/04/24 07:12:55;;;;;;;0.80;0.10;;;12.40;80.00;;;;;;4858770;28;94686;-71
2023/04/24 07:15:21;;;;;;;1.75;0.10;;;12.50;81.40;;;;;;4855470;28;96924;-71
2023/04/24 07:17:47;;;;;;;1.15;0.40;;;12.60;79.60;;;;;;4853777;28;94182;-71
2023/04/24 07:20:14;;;;;;;1.38;0.13;;;12.80;80.50;;;;;;4852362;28;94205;-72
2023/04/24 07:22:40;;;;;;;0.88;0.00;;;12.80;81.50;;;;;;4853596;28;93815;-71
2023/04/24 07:25:06;;;;;;;0.40;0.10;;;12.70;82.20;;;;;;4856311;28;92446;-71
2023/04/24 07:27:32;;;;;;;1.15;0.10;;;12.80;82.70;;;;;;4852757;28;94296;-71
2023/04/24 07:29:58;;;;;;;0.43;0.00;;;13.00;82.80;;;;;;4852681;28;95074;-71
2023/04/24 07:32:24;;;;;;;1.05;0.10;;;12.80;84.00;;;;;;4858752;28;94465;-71
2023/04/24 07:34:49;;;;;;;1.85;0.20;;;13.00;84.00;;;;;;4852621;28;94136;-71
2023/04/24 07:37:15;;;;;;;0.60;0.10;;;13.10;84.30;;;;;;4854839;28;94545;-72
2023/04/24 07:39:41;;;;;;;0.57;0.08;;;12.90;83.70;;;;;;4853150;28;94332;-71
2023/04/24 07:42:07;;;;;;;1.83;0.20;;;12.60;85.10;;;;;;4860436;28;94117;-72
2023/04/24 07:44:32;;;;;;;1.00;0.15;;;12.70;84.90;;;;;;4857025;28;94166;-71
2023/04/24 07:46:58;;;;;;;1.13;0.10;;;12.50;86.40;;;;;;4853098;28;93050;-72
2023/04/24 07:49:24;;;;;;;0.60;0.10;;;12.60;87.10;;;;;;4853587;28;93956;-71
2023/04/24 07:51:50;;;;;;;1.10;0.00;;;12.50;88.20;;;;;;4853602;28;94210;-72
2023/04/24 07:54:16;;;;;;;1.23;0.10;;;12.70;85.90;;;;;;4853087;28;94744;-72
2023/04/24 07:56:43;;;;;;;1.15;0.10;;;13.20;85.20;;;;;;4853810;28;93775;-72
2023/04/24 07:59:10;;;;;;;0.70;0.10;;;13.60;85.50;;;;;;4853101;28;93800;-72
2023/04/24 08:01:36;;;;;;;0.75;0.03;;;14.20;82.90;;;;;;4852938;28;94040;-72
2023/04/24 08:04:02;;;;;;;1.35;0.00;;;14.50;81.70;;;;;;4853274;28;94066;-72
2023/04/24 08:06:30;;;;;;;0.98;0.10;;;14.90;80.90;;;;;;4854156;28;94837;-72
2023/04/24 08:08:56;;;;;;;4.00;0.05;;;15.10;79.10;;;;;;4853145;28;93960;-72
2023/04/24 08:11:22;;;;;;;1.33;0.10;;;16.30;75.40;;;;;;4854080;28;93452;-72
2023/04/24 08:13:47;;;;;;;3.25;0.13;;;17.10;71.40;;;;;;4856461;28;94115;-72
2023/04/24 08:16:13;;;;;;;0.80;0.10;;;17.50;71.10;;;;;;4852761;28;94194;-72
2023/04/24 08:18:39;;;;;;;2.38;0.22;;;19.70;67.70;;;;;;4852014;28;94049;-73
2023/04/24 08:21:05;;;;;;;2.50;0.40;;;21.90;60.40;;;;;;4853848;28;93782;-72
2023/04/24 08:23:30;;;;;;;0.60;0.30;;;22.90;55.70;;;;;;4853010;28;94114;-72
2023/04/24 08:25:57;;;;;;;1.35;0.20;;;22.30;52.50;;;;;;4852999;28;93172;-71
2023/04/24 08:28:23;;;;;;;0.40;0.03;;;21.10;54.60;;;;;;4852647;28;94010;-71
2023/04/24 08:30:54;;;;;;;0.60;0.10;;;20.20;57.50;;;;;;4851922;28;94368;-71
2023/04/24 08:33:20;;;;;;;0.40;0.10;;;19.50;60.50;;;;;;4853413;28;94196;-71
2023/04/24 08:35:46;;;;;;;0.63;0.10;;;18.80;60.40;;;;;;4853591;28;92920;-71
2023/04/24 08:38:11;;;;;;;0.35;0.10;;;18.00;61.70;;;;;;4853671;28;94225;-71
2023/04/24 08:40:38;;;;;;;3.03;0.20;;;17.30;64.00;;;;;;4854375;28;94469;-71
2023/04/24 08:43:04;;;;;;;0.82;0.10;;;16.50;64.80;;;;;;4853500;28;95145;-71
2023/04/24 08:45:29;;;;;;;0.80;0.10;;;15.90;66.20;;;;;;4851997;28;93263;-73
2023/04/24 08:47:57;;;;;;;1.05;0.15;;;15.50;68.00;;;;;;4852830;28;93311;-73
2023/04/24 08:50:23;;;;;;;1.65;0.20;;;15.20;72.10;;;;;;4852423;28;93954;-73
2023/04/24 08:52:56;;;;;;;1.17;0.10;;;15.10;74.30;;;;;;4851719;28;93757;-72
2023/04/24 08:55:24;;;;;;;1.58;0.10;;;15.00;71.20;;;;;;4851809;28;94800;-72
2023/04/24 08:57:52;;;;;;;2.55;0.20;;;15.10;72.00;;;;;;4851672;28;93153;-71
2023/04/24 09:00:19;;;;;;;0.35;0.03;;;15.10;74.60;;;;;;4853275;28;93695;-72
2023/04/24 09:02:48;;;;;;;2.53;0.30;;;15.00;72.60;;;;;;4853213;28;94106;-72
2023/04/24 09:05:16;;;;;;;1.10;0.10;;;15.00;75.40;;;;;;4855410;28;93152;-72
2023/04/24 09:07:46;;;;;;;2.22;0.32;;;14.90;75.20;;;;;;4855125;28;94701;-72
2023/04/24 09:10:12;;;;;;;1.02;0.13;;;14.70;75.80;;;;;;4840433;28;93811;-72
2023/04/24 09:12:38;;;;;;;0.80;0.10;;;14.30;76.80;;;;;;4856421;28;95016;-72
2023/04/24 09:15:04;;;;;;;0.60;0.10;;;14.20;78.40;;;;;;4865848;28;94464;-72
2023/04/24 09:17:31;;;;;;;1.85;0.10;;;13.90;72.30;;;;;;4856752;28;93786;-72
2023/04/24 09:19:56;;;;;;;1.23;0.20;;;13.40;73.00;;;;;;4858558;28;94511;-71
2023/04/24 09:22:22;;;;;;;0.60;0.10;;;13.10;75.40;;;;;;4862603;28;93139;-71
2023/04/24 09:24:59;;;;;;;1.80;0.30;;;14.10;75.20;;;;;;4854727;28;94192;-71
2023/04/24 09:27:24;;;;;;;2.05;0.35;;;16.00;71.50;;;;;;4861312;28;94823;-72
2023/04/24 09:29:54;;;;;;;1.30;0.10;;;19.20;63.20;;;;;;4855496;28;94288;-72
2023/04/24 09:32:22;;;;;;;1.20;0.10;;;18.40;59.70;;;;;;4853373;28;94954;-72
2023/04/24 09:34:48;;;;;;;3.40;0.77;;;17.80;62.70;;;;;;4855627;28;97205;-72
2023/04/24 09:37:30;;;;;;;1.42;0.20;;;16.80;64.20;;;;;;4857206;28;93915;-71
2023/04/24 09:40:11;;;;;;;1.65;0.15;;;15.70;66.40;;;;;;4854605;28;93812;-71
2023/04/24 09:42:37;;;;;;;2.28;0.20;;;14.90;69.80;;;;;;4856833;28;95017;-71
2023/04/24 09:45:03;;;;;;;1.58;0.30;;;14.50;71.40;;;;;;4859220;28;93602;-71
2023/04/24 09:47:36;;;;;;;1.30;0.20;;;14.20;71.90;;;;;;4877220;28;92532;-71
2023/04/24 09:50:10;;;;;;;2.28;0.10;;;13.80;71.50;;;;;;4879139;28;91490;-72
2023/04/24 09:52:35;;;;;;;0.70;0.10;;;13.40;75.20;;;;;;4879766;28;94785;-73
2023/04/24 09:55:01;;;;;;;3.72;0.25;;;13.20;75.50;;;;;;4871004;28;93241;-73
2023/04/24 09:57:26;;;;;;;1.60;0.10;;;13.10;76.50;;;;;;4859845;28;93922;-71
2023/04/24 09:59:53;;;;;;;2.20;0.20;;;13.20;76.50;;;;;;4860460;28;92448;-71
2023/04/24 10:02:20;;;;;;;1.73;0.20;;;13.20;76.30;;;;;;4862076;28;92966;-72
2023/04/24 10:04:56;;;;;;;1.42;0.20;;;13.40;76.10;;;;;;4858206;28;94183;-71
2023/04/24 10:07:25;;;;;;;1.60;0.20;;;13.50;76.20;;;;;;4857466;28;94512;-71
2023/04/24 10:09:51;;;;;;;0.90;0.20;;;13.80;74.50;;;;;;4858591;28;94318;-71
2023/04/24 10:12:18;;;;;;;1.98;0.32;;;14.10;74.40;;;;;;4862845;28;93622;-71
2023/04/24 10:14:45;;;;;;;2.22;0.20;;;14.50;73.30;;;;;;4867022;28;92358;-71
2023/04/24 10:17:12;;;;;;;3.10;0.20;;;14.80;73.30;;;;;;4884639;28;92686;-72
2023/04/24 10:19:40;;;;;;;1.08;0.28;;;14.90;70.90;;;;;;4871102;28;92680;-71
2023/04/24 10:22:06;;;;;;;2.38;0.50;;;15.10;70.60;;;;;;4872209;28;94232;-73
2023/04/24 10:24:35;;;;;;;3.13;0.40;;;15.30;71.80;;;;;;4869026;28;93920;-71
2023/04/24 10:27:01;;;;;;;2.28;0.30;;;15.70;70.60;;;;;;4874411;28;92912;-71
2023/04/24 10:29:28;;;;;;;2.00;0.43;;;16.10;66.90;;;;;;4873165;28;92616;-71
2023/04/24 10:31:54;;;;;;;1.40;0.20;;;16.70;64.70;;;;;;4870906;28;93701;-71
2023/04/24 10:34:22;;;;;;;2.45;0.38;;;17.10;61.50;;;;;;4873426;28;93101;-71
2023/04/24 10:36:51;;;;;;;4.53;0.30;;;17.10;62.90;;;;;;4872493;28;92074;-71
2023/04/24 10:39:18;;;;;;;3.42;0.30;;;17.00;65.60;;;;;;4870795;28;93297;-71
2023/04/24 10:41:46;;;;;;;3.22;0.50;;;16.90;63.80;;;;;;4871231;28;93713;-71
2023/04/24 10:44:14;;;;;;;2.67;0.68;;;16.70;64.30;;;;;;4870258;28;92591;-72
2023/04/24 10:46:45;;;;;;;3.55;0.40;;;16.30;64.60;;;;;;4871504;28;95541;-71
2023/04/24 10:49:11;;;;;;;2.70;0.40;;;16.00;66.50;;;;;;4858545;28;92533;-71
2023/04/24 10:51:45;;;;;;;3.95;0.38;;;15.70;67.40;;;;;;4863652;28;94015;-71
2023/04/24 10:54:40;;;;;;;3.17;0.80;;;15.80;65.20;;;;;;4862171;28;93592;-71
2023/04/24 10:57:19;;;;;;;2.53;0.40;;;15.90;65.10;;;;;;4862073;28;92938;-71
2023/04/24 10:59:45;;;;;;;1.98;0.30;;;15.80;65.00;;;;;;4862556;28;93148;-71
2023/04/24 11:02:10;;;;;;;1.55;0.30;;;15.80;66.20;;;;;;4867459;28;92716;-73
2023/04/24 11:04:36;;;;;;;2.03;0.43;;;15.70;63.00;;;;;;4866743;28;93858;-72
2023/04/24 11:07:03;;;;;;;2.25;0.30;;;15.80;64.30;;;;;;4864537;28;93977;-71
2023/04/24 11:09:33;;;;;;;3.00;0.50;;;15.90;63.80;;;;;;4867025;28;92627;-71
2023/04/24 11:12:08;;;;;;;2.28;0.30;;;16.30;62.30;;;;;;4869004;28;95643;-72
2023/04/24 11:14:56;;;;;;;5.70;0.45;;;16.90;65.60;;;;;;4866345;28;94096;-71
2023/04/24 11:17:42;;;;;;;5.60;0.52;;;17.70;63.90;;;;;;4862778;28;93984;-71
2023/04/24 11:20:09;;;;;;;1.75;0.28;;;18.20;61.50;;;;;;4861109;28;93895;-72
2023/04/24 11:22:36;;;;;;;1.25;0.35;;;18.50;59.50;;;;;;4862972;28;93926;-72
2023/04/24 11:25:04;;;;;;;1.67;0.45;;;18.40;56.20;;;;;;4867566;28;93857;-71
2023/04/24 11:27:32;;;;;;;4.20;0.50;;;18.70;58.90;;;;;;4856333;28;94131;-71
2023/04/24 11:29:58;;;;;;;2.85;0.45;;;18.80;59.50;;;;;;4858305;28;93428;-72
2023/04/24 11:32:40;;;;;;;2.08;0.50;;;18.60;60.00;;;;;;4854630;28;94229;-71
2023/04/24 11:35:17;;;;;;;3.22;0.50;;;18.20;59.80;;;;;;4857466;28;93125;-71
2023/04/24 11:37:51;;;;;;;5.63;0.60;;;17.80;58.40;;;;;;4868678;28;93545;-72
2023/04/24 11:40:22;;;;;;;4.85;0.60;;;17.70;60.90;;;;;;4874038;28;94143;-73
2023/04/24 11:42:49;;;;;;;4.15;0.60;;;17.70;60.30;;;;;;4865658;28;96322;-72
2023/04/24 11:45:18;;;;;;;7.10;0.70;;;17.80;59.10;;;;;;4871121;28;93287;-72
2023/04/24 11:47:44;;;;;;;7.45;1.08;;;18.10;60.10;;;;;;4869148;28;92356;-72
2023/04/24 11:50:15;;;;;;;4.50;0.35;;;18.10;59.10;;;;;;4879008;28;92706;-72
2023/04/24 11:52:42;;;;;;;2.88;0.32;;;18.00;57.90;;;;;;4875064;28;93302;-72
2023/04/24 11:55:14;;;;;;;2.03;0.40;;;18.00;57.30;;;;;;4876119;28;92946;-72
2023/04/24 11:57:46;;;;;;;1.80;0.40;;;18.00;59.60;;;;;;4862958;28;94244;-72
2023/04/24 12:00:20;;;;;;;5.47;0.40;;;17.70;56.80;;;;;;4864886;28;93999;-72
2023/04/24 12:02:47;;;;;;;4.57;0.50;;;17.30;60.20;;;;;;4876974;28;94409;-72
2023/04/24 12:05:25;;;;;;;4.97;0.40;;;16.90;60.90;;;;;;4869777;28;94131;-72
2023/04/24 12:07:52;;;;;;;2.53;0.50;;;16.60;61.50;;;;;;4860688;28;93715;-72
2023/04/24 12:10:25;;;;;;;3.53;0.40;;;16.30;60.60;;;;;;4861904;28;92470;-71
2023/04/24 12:12:51;;;;;;;3.15;0.40;;;16.30;61.90;;;;;;4856082;28;94021;-71
2023/04/24 12:15:19;;;;;;;2.30;0.47;;;16.60;62.60;;;;;;4857550;28;94275;-71
2023/04/24 12:17:45;;;;;;;3.33;0.40;;;16.90;61.10;;;;;;4862767;28;94539;-71
2023/04/24 12:20:12;;;;;;;4.80;0.80;;;17.50;58.80;;;;;;4865143;28;93824;-71
2023/04/24 12:22:47;;;;;;;4.15;0.38;;;18.20;60.40;;;;;;4876572;28;95705;-71
2023/04/24 12:25:17;;;;;;;4.53;0.50;;;18.70;60.20;;;;;;4878547;28;93497;-71
2023/04/24 12:27:44;;;;;;;3.58;0.50;;;18.90;60.20;;;;;;4881915;28;93439;-71
2023/04/24 12:30:15;;;;;;;2.78;0.30;;;19.10;54.40;;;;;;4863688;28;93991;-71
2023/04/24 12:32:45;;;;;;;2.92;0.70;;;19.10;56.30;;;;;;4854713;28;93262;-71
2023/04/24 12:35:11;;;;;;;2.42;0.47;;;18.90;55.00;;;;;;4854436;28;94259;-71
2023/04/24 12:37:36;;;;;;;2.95;0.40;;;18.60;55.90;;;;;;4856322;28;93935;-71
2023/04/24 12:40:10;;;;;;;3.78;0.30;;;18.30;55.60;;;;;;4859083;28;93924;-71
2023/04/24 12:42:46;;;;;;;1.77;0.30;;;18.10;56.10;;;;;;4857560;28;94456;-71
2023/04/24 12:45:12;;;;;;;3.10;0.60;;;17.80;55.70;;;;;;4857574;28;92995;-71
2023/04/24 12:47:39;;;;;;;4.90;0.40;;;17.60;57.50;;;;;;4856935;28;94564;-71
2023/04/24 12:50:06;;;;;;;4.72;0.60;;;17.60;58.70;;;;;;4860556;28;94143;-71
2023/04/24 12:52:32;;;;;;;4.03;0.50;;;17.40;57.90;;;;;;4859504;28;94938;-71
2023/04/24 12:54:59;;;;;;;5.03;0.52;;;17.30;57.80;;;;;;4856384;28;94330;-71
2023/04/24 12:57:29;;;;;;;1.63;0.40;;;16.90;59.70;;;;;;4854045;28;94243;-71
2023/04/24 12:59:57;;;;;;;3.72;0.50;;;16.60;62.00;;;;;;4878200;28;93749;-71
2023/04/24 13:02:27;;;;;;;3.95;0.40;;;16.60;62.10;;;;;;4874736;28;94217;-71
2023/04/24 13:04:53;;;;;;;1.65;0.30;;;16.50;62.40;;;;;;4888755;28;93374;-71
2023/04/24 13:07:20;;;;;;;2.33;0.30;;;16.50;63.90;;;;;;4872116;28;92604;-71
2023/04/24 13:09:47;;;;;;;2.83;0.70;;;16.50;62.40;;;;;;4867108;28;93335;-71
2023/04/24 13:12:13;;;;;;;2.97;0.40;;;16.60;62.40;;;;;;4874118;28;92241;-71
2023/04/24 13:14:39;;;;;;;5.38;0.40;;;16.70;62.00;;;;;;4860473;28;94197;-71
2023/04/24 13:17:05;;;;;;;2.25;0.32;;;17.20;63.10;;;;;;4857775;28;94905;-71
2023/04/24 13:19:36;;;;;;;3.15;0.40;;;17.60;61.00;;;;;;4860313;28;92656;-71
2023/04/24 13:22:02;;;;;;;2.05;0.30;;;18.10;57.40;;;;;;4857727;28;92807;-71
2023/04/24 13:24:27;;;;;;;4.38;0.95;;;18.40;56.30;;;;;;4857944;28;94567;-71
2023/04/24 13:26:57;;;;;;;3.28;0.40;;;18.50;57.80;;;;;;4860104;28;92453;-71
2023/04/24 13:29:23;;;;;;;3.03;0.50;;;18.60;55.80;;;;;;4859355;28;93885;-71
2023/04/24 13:31:51;;;;;;;3.47;0.40;;;18.70;56.70;;;;;;4859623;28;93756;-71
2023/04/24 13:34:17;;;;;;;2.85;0.40;;;18.70;55.60;;;;;;4860422;28;92801;-71
2023/04/24 13:36:43;;;;;;;2.97;0.40;;;18.70;55.10;;;;;;4856106;28;93404;-71
2023/04/24 13:39:10;;;;;;;1.63;0.30;;;18.50;55.10;;;;;;4862487;28;92959;-71
2023/04/24 13:41:36;;;;;;;2.47;0.40;;;18.30;54.50;;;;;;4875259;28;94953;-71
2023/04/24 13:44:02;;;;;;;1.58;0.40;;;18.00;53.60;;;;;;4876026;28;94570;-71
2023/04/24 13:46:28;;;;;;;4.75;0.65;;;17.70;55.80;;;;;;4875521;28;93505;-71
2023/04/24 13:48:54;;;;;;;2.90;0.35;;;17.10;58.80;;;;;;4885830;28;92522;-71
2023/04/24 13:51:20;;;;;;;4.97;0.40;;;16.70;61.60;;;;;;4884152;28;93347;-71
2023/04/24 13:53:45;;;;;;;1.92;0.30;;;16.50;62.10;;;;;;4882619;28;92860;-71
2023/04/24 13:56:12;;;;;;;2.17;0.30;;;16.30;63.70;;;;;;4877027;28;92610;-71
2023/04/24 13:58:38;;;;;;;3.65;0.40;;;16.20;66.50;;;;;;4876340;28;93246;-71
2023/04/24 14:01:04;;;;;;;2.63;0.38;;;16.30;66.20;;;;;;4860037;28;94636;-71
2023/04/24 14:03:30;;;;;;;2.58;0.40;;;16.40;64.70;;;;;;4851939;28;94041;-71
2023/04/24 14:05:56;;;;;;;2.25;0.40;;;16.50;63.20;;;;;;4851995;28;95540;-71
2023/04/24 14:08:22;;;;;;;2.28;0.30;;;16.40;63.00;;;;;;4855264;28;94304;-71
2023/04/24 14:10:47;;;;;;;2.88;0.30;;;16.40;62.60;;;;;;4855984;28;94432;-71
2023/04/24 14:13:13;;;;;;;4.30;0.40;;;16.50;62.40;;;;;;4851343;28;95395;-71
2023/04/24 14:15:39;;;;;;;2.65;0.45;;;16.40;64.00;;;;;;4866012;28;93352;-71
2023/04/24 14:18:05;;;;;;;2.65;0.40;;;16.50;64.30;;;;;;4878989;28;92492;-71
2023/04/24 14:20:31;;;;;;;2.67;0.30;;;16.50;63.30;;;;;;4875306;28;93196;-71
2023/04/24 14:22:58;;;;;;;1.42;0.30;;;16.30;63.70;;;;;;4856924;28;93133;-71
2023/04/24 14:25:25;;;;;;;3.65;0.40;;;16.10;63.90;;;;;;4856008;28;94426;-71
2023/04/24 14:27:51;;;;;;;4.97;0.40;;;16.10;63.40;;;;;;4854635;28;94138;-71
2023/04/24 14:30:18;;;;;;;3.25;0.40;;;16.30;63.00;;;;;;4852222;28;95066;-71
2023/04/24 14:32:43;;;;;;;2.30;0.40;;;16.40;69.20;;;;;;4853635;28;95829;-71
2023/04/24 14:35:09;;;;;;;2.67;0.40;;;16.80;65.00;;;;;;4853817;28;94222;-71
2023/04/24 14:37:35;;;;;;;2.67;0.40;;;17.00;63.20;;;;;;4853699;28;94058;-71
2023/04/24 14:40:02;;;;;;;2.88;0.50;;;17.30;64.20;;;;;;4856169;28;93953;-71
2023/04/24 14:42:28;;;;;;;1.95;0.30;;;17.50;63.40;;;;;;4875243;28;92816;-71
2023/04/24 14:44:54;;;;;;;5.95;0.50;;;17.50;59.00;;;;;;4877584;28;92398;-71
2023/04/24 14:47:23;;;;;;;2.22;0.40;;;17.50;60.70;;;;;;4878726;28;91724;-71
2023/04/24 14:49:49;;;;;;;2.70;0.40;;;17.40;60.10;;;;;;4876682;28;93461;-71
2023/04/24 14:52:15;;;;;;;1.65;0.40;;;17.20;60.10;;;;;;4860959;28;93207;-71
2023/04/24 14:54:41;;;;;;;2.90;0.60;;;16.80;60.00;;;;;;4865408;28;93621;-71
2023/04/24 14:57:07;;;;;;;4.38;0.60;;;16.40;60.40;;;;;;4848526;28;94007;-71
2023/04/24 14:59:33;;;;;;;2.35;0.40;;;16.20;61.30;;;;;;4850935;28;94245;-71
2023/04/24 15:01:59;;;;;;;5.75;0.73;;;16.00;63.60;;;;;;4855865;28;94282;-71
2023/04/24 15:04:25;;;;;;;2.80;0.50;;;16.20;62.70;;;;;;4854331;28;93666;-71
2023/04/24 15:06:53;;;;;;;5.20;0.70;;;16.20;65.10;;;;;;4858108;28;94606;-71
2023/04/24 15:09:22;;;;;;;2.45;0.40;;;16.20;64.40;;;;;;4878805;28;93431;-71
2023/04/24 15:11:48;;;;;;;3.33;1.00;;;16.10;64.30;;;;;;4855315;28;93552;-71
2023/04/24 15:14:15;;;;;;;2.88;0.40;;;16.10;63.80;;;;;;4870614;28;95781;-71
2023/04/24 15:16:41;;;;;;;3.47;0.40;;;16.00;64.30;;;;;;4858601;28;92546;-71
2023/04/24 15:19:06;;;;;;;3.08;0.47;;;15.90;63.90;;;;;;4858124;28;94915;-71
2023/04/24 15:21:32;;;;;;;4.15;0.80;;;15.70;64.60;;;;;;4872941;28;95115;-71
2023/04/24 15:23:58;;;;;;;3.63;0.40;;;15.60;64.40;;;;;;4873753;28;93740;-71
2023/04/24 15:26:25;;;;;;;3.17;0.40;;;15.50;65.40;;;;;;4883692;28;92245;-71
2023/04/24 15:28:51;;;;;;;3.35;0.40;;;15.60;66.10;;;;;;4868989;28;94444;-71
2023/04/24 15:31:18;;;;;;;1.65;0.50;;;15.50;67.20;;;;;;4864688;28;93533;-71
2023/04/24 15:33:44;;;;;;;2.10;0.32;;;15.50;68.20;;;;;;4876655;28;92835;-71
2023/04/24 15:36:10;;;;;;;4.00;0.60;;;15.50;70.40;;;;;;4873888;28;93475;-71
2023/04/24 15:38:36;;;;;;;3.65;0.30;;;15.50;69.70;;;;;;4853734;28;93764;-71
2023/04/24 15:41:02;;;;;;;1.95;0.50;;;15.40;67.50;;;;;;4854609;28;92721;-70
2023/04/24 15:43:33;;;;;;;2.03;0.30;;;15.20;68.10;;;;;;4852014;28;94937;-70
2023/04/24 15:45:59;;;;;;;3.05;0.32;;;15.10;68.60;;;;;;4856551;28;94090;-71
2023/04/24 15:48:25;;;;;;;2.70;0.30;;;14.90;68.00;;;;;;4855670;28;93764;-70